createdAt,value
2022-10-07T13:54:52.789Z,23.19
2022-10-07T13:57:57.541Z,23.19
2022-10-07T14:01:04.595Z,22.49
2022-10-07T14:05:51.700Z,22.31
2022-10-07T14:08:55.355Z,22.31
2022-10-07T14:12:06.587Z,21.54
2022-10-07T14:15:15.832Z,21.17
2022-10-07T14:18:18.921Z,21.04
2022-10-07T14:21:23.570Z,20.78
2022-10-07T14:24:27.378Z,20.66
2022-10-07T14:28:17.976Z,20.45
2022-10-07T14:31:39.906Z,20.37
2022-10-07T14:35:03.509Z,20.27
2022-10-07T14:38:27.539Z,20.20
2022-10-07T14:41:32.357Z,20.01
2022-10-07T14:44:36.485Z,19.99
2022-10-07T14:47:41.630Z,19.94
2022-10-07T14:50:45.211Z,19.85
2022-10-07T14:53:52.570Z,19.64
2022-10-07T14:56:55.632Z,19.58
2022-10-07T15:00:00.626Z,19.48
2022-10-07T15:03:04.281Z,19.25
2022-10-07T15:06:07.748Z,19.31
2022-10-07T15:09:13.454Z,19.15
2022-10-07T15:12:17.005Z,19.07
2022-10-07T15:15:20.296Z,18.99
2022-10-07T15:18:23.878Z,18.97
2022-10-07T15:21:29.447Z,18.83
2022-10-07T15:24:33.349Z,18.81
2022-10-07T15:27:37.836Z,18.71
2022-10-07T15:30:41.246Z,18.57
2022-10-07T15:33:44.640Z,18.41
2022-10-07T15:36:48.764Z,18.20
2022-10-07T15:39:51.812Z,18.05
2022-10-07T15:42:58.288Z,17.86
2022-10-07T15:46:01.727Z,17.79
2022-10-07T15:49:06.069Z,17.66
2022-10-07T15:52:11.794Z,17.51
2022-10-07T15:55:16.406Z,17.31
2022-10-07T15:58:21.555Z,17.12
2022-10-07T16:01:28.403Z,17.12
2022-10-07T16:04:32.064Z,16.98
2022-10-07T16:07:35.257Z,17.03
2022-10-07T16:10:38.604Z,16.83
2022-10-07T16:13:43.706Z,16.64
2022-10-07T16:16:46.887Z,16.59
2022-10-07T16:19:49.960Z,16.73
2022-10-07T16:22:53.195Z,16.54
2022-10-07T16:25:56.244Z,16.30
2022-10-07T16:29:20.341Z,16.11
2022-10-07T16:32:23.622Z,15.91
2022-10-07T16:35:30.496Z,15.67
2022-10-07T16:38:33.613Z,15.47
2022-10-07T16:41:41.686Z,15.32
2022-10-07T16:44:49.884Z,15.08
2022-10-07T16:47:56.607Z,14.90
2022-10-07T16:50:59.631Z,14.74
2022-10-07T16:54:13.502Z,14.55
2022-10-07T16:57:16.523Z,14.44
2022-10-07T17:00:20.219Z,14.16
2022-10-07T17:03:23.625Z,14.17
2022-10-07T17:06:29.709Z,14.04
2022-10-07T17:09:32.871Z,13.94
2022-10-07T17:12:37.944Z,13.70
2022-10-07T17:15:40.988Z,13.80
2022-10-07T17:18:44.550Z,13.66
2022-10-07T17:21:48.634Z,13.60
2022-10-07T17:24:53.219Z,13.52
2022-10-07T17:27:56.249Z,13.41
2022-10-07T17:31:13.639Z,13.33
2022-10-07T17:34:22.256Z,13.19
2022-10-07T17:37:26.800Z,13.08
2022-10-07T17:40:32.040Z,12.91
2022-10-07T17:43:35.831Z,12.82
2022-10-07T17:46:40.439Z,12.74
2022-10-07T21:11:21.978Z,9.41
2022-10-07T21:14:25.791Z,9.44
2022-10-07T21:17:28.816Z,9.36
2022-10-07T21:20:32.588Z,9.38
2022-10-07T21:23:35.696Z,9.36
2022-10-07T21:26:39.172Z,9.33
2022-10-07T21:29:45.721Z,9.33
2022-10-07T21:32:51.516Z,9.25
2022-10-07T21:36:04.312Z,9.24
2022-10-07T21:39:08.061Z,9.13
2022-10-07T21:42:11.545Z,9.14
2022-10-07T21:45:15.935Z,9.09
2022-10-07T21:48:19.604Z,9.00
2022-10-07T21:51:23.967Z,8.95
2022-10-07T21:54:27.674Z,8.92
2022-10-07T21:57:30.913Z,8.85
2022-10-07T22:00:35.091Z,8.86
2022-10-07T22:03:39.144Z,8.71
2022-10-07T22:07:00.650Z,8.78
2022-10-07T22:10:04.299Z,8.76
2022-10-07T22:13:07.834Z,8.70
2022-10-07T22:16:17.338Z,8.64
2022-10-07T22:19:20.548Z,8.61
2022-10-07T22:22:25.204Z,8.61
2022-10-07T22:25:28.409Z,8.50
2022-10-07T22:28:31.907Z,8.59
2022-10-07T22:31:35.757Z,8.53
2022-10-07T22:34:57.798Z,8.50
2022-10-07T22:38:03.140Z,8.43
2022-10-07T22:41:09.027Z,8.34
2022-10-07T22:44:12.115Z,8.31
2022-10-07T22:47:21.284Z,8.27
2022-10-07T22:50:24.598Z,8.19
2022-10-07T22:53:28.097Z,8.23
2022-10-07T22:56:31.404Z,8.21
2022-10-07T22:59:36.122Z,8.19
2022-10-07T23:02:39.463Z,8.22
2022-10-07T23:05:44.017Z,8.18
2022-10-07T23:08:48.715Z,8.09
2022-10-07T23:11:52.248Z,8.06
2022-10-07T23:14:55.673Z,8.02
2022-10-07T23:17:59.123Z,7.98
2022-10-07T23:21:03.985Z,7.87
2022-10-07T23:24:08.493Z,7.94
2022-10-07T23:27:14.103Z,8.01
2022-10-07T23:30:21.262Z,8.04
2022-10-07T23:33:24.604Z,8.05
2022-10-07T23:36:28.453Z,8.05
2022-10-07T23:39:34.043Z,7.99
2022-10-07T23:42:37.410Z,7.88
2022-10-07T23:45:45.606Z,7.78
2022-10-07T23:48:49.842Z,7.69
2022-10-07T23:51:53.629Z,7.62
2022-10-07T23:54:56.987Z,7.64
2022-10-07T23:58:02.073Z,7.57
